Latest Coastal Weather Observations for Point Fawcett

IDD60701

Issued at 6:55 am CST Sunday 23 November 2014 (issued every 10 minutes, with the page automatically refreshed every 10 minutes)

About coastal observations | Map of coastal stations | Coastal observations for NT | Marine services | Other Formats
Station Details ID: 200731 Name: POINT FAWCETT Lat: -11.76 Lon: 130.03 Height: 6.5 m
Data from the previous 72 hours. | See also: Recent months at Point Fawcett
Date/Time
CST
Temp

°C
Wind Pressure Rain
since 9am
mm
Weather Cloud Vis
km
Sea
Height
m
Swell
Dir
 
Speed
knots
Gust
knots
hPa Trend Height
m
Period
s
Dir
23/06:30am 25.5 E 5 7 1010.7 - - - - - - - - -
23/06:00am 25.0 E 4 6 1010.1 - - - - - - - - -
23/05:30am 25.0 E 5 6 1009.8 - - - - - - - - -
23/05:00am 24.8 E 4 6 1009.7 - - - - - - - - -
23/04:30am 25.1 E 4 7 1009.6 - - - - - - - - -
23/04:00am 24.9 E 5 6 1009.3 - - - - - - - - -
23/03:30am 24.5 ESE 4 5 1009.3 - - - - - - - - -
23/03:00am 24.8 SE 4 5 1009.1 - - - - - - - - -
23/02:30am 24.9 ESE 4 5 1009.3 - - - - - - - - -
23/02:00am 25.3 ESE 4 4 1009.4 - - - - - - - - -
23/01:30am 25.9 CALM 0 0 1009.8 - - - - - - - - -
23/01:00am 26.8 NNW 1 3 1010.1 - - - - - - - - -
23/12:00am 28.7 N 4 6 1010.3 - - - - - - - - -
 
Date/Time
CST
Temp

°C
Wind Pressure Rain
since 9am
mm
Weather Cloud Vis
km
Sea
Height
m
Swell
Dir
 
Speed
knots
Gust
knots
hPa Trend Height
m
Period
s
Dir
22/11:30pm 28.9 NNW 6 8 1010.4 - - - - - - - - -
22/11:00pm 29.0 N 7 9 1010.4 - - - - - - - - -
22/10:30pm 29.2 NNW 7 9 1010.5 - - - - - - - - -
22/10:00pm 29.4 NNW 7 11 1010.5 - - - - - - - - -
22/09:30pm 29.5 NNW 7 10 1010.6 - - - - - - - - -
22/09:00pm 29.5 NNW 9 12 1010.2 - - - - - - - - -
22/08:30pm 29.7 NNW 7 10 1010.2 - - - - - - - - -
22/08:00pm 29.7 NNW 7 9 1010.0 - - - - - - - - -
22/07:30pm 29.8 NW 8 10 1009.7 - - - - - - - - -
22/07:00pm 29.8 NW 7 8 1009.5 - - - - - - - - -
22/06:30pm 30.5 NW 7 9 1009.0 - - - - - - - - -
22/06:00pm 31.5 NW 8 9 1008.5 - - - - - - - - -
22/05:30pm 32.2 NW 9 11 1008.0 - - - - - - - - -
22/05:00pm 32.6 WNW 8 10 1007.8 - - - - - - - - -
22/04:30pm 32.5 W 6 8 1007.8 - - - - - - - - -
22/04:00pm 33.3 WSW 7 9 1008.0 - - - - - - - - -
22/03:30pm 33.6 WSW 8 11 1008.3 - - - - - - - - -
22/03:00pm 33.9 SW 8 12 1008.5 - - - - - - - - -
22/02:30pm 34.0 SW 8 12 1009.2 - - - - - - - - -
22/02:00pm 33.7 SW 10 14 1009.5 - - - - - - - - -
22/01:30pm 33.1 WSW 8 11 1010.0 - - - - - - - - -
22/01:00pm 33.7 SW 6 11 1010.3 - - - - - - - - -
22/12:30pm 33.4 NW 5 7 1010.8 - - - - - - - - -
22/12:00pm 34.2 NNW 6 9 1011.2 - - - - - - - - -
22/11:30am 33.5 NNW 6 8 1011.6 - - - - - - - - -
22/11:00am 31.4 NW 6 8 1011.9 - - - - - - - - -
22/10:30am 32.0 WNW 7 9 1012.0 - - - - - - - - -
22/10:00am 33.2 E 5 8 1012.0 - - - - - - - - -
22/09:30am 32.6 NE 6 9 1011.9 - - - - - - - - -
22/09:00am 31.7 ENE 6 9 1011.8 - - - - - - - - -
22/08:30am 30.8 SE 3 6 1011.6 - - - - - - - - -
22/08:00am 29.7 E 3 5 1011.2 - - - - - - - - -
22/07:30am 27.0 ESE 3 5 1010.9 - - - - - - - - -
22/07:00am 25.3 ESE 4 4 1010.3 - - - - - - - - -
22/06:30am 24.5 CALM 0 0 1009.7 - - - - - - - - -
22/06:00am 24.8 CALM 0 0 1009.2 - - - - - - - - -
22/05:30am 25.2 CALM 0 0 1009.3 - - - - - - - - -
22/05:00am 25.9 NW 3 4 1009.0 - - - - - - - - -
22/04:30am 27.4 WNW 5 7 1008.7 - - - - - - - - -
22/04:00am 28.2 NW 5 8 1008.4 - - - - - - - - -
22/03:30am 28.3 NW 6 8 1008.4 - - - - - - - - -
22/03:00am 28.4 NW 7 9 1008.3 - - - - - - - - -
22/02:30am 28.4 NNW 7 9 1008.6 - - - - - - - - -
22/02:00am 28.5 NNW 7 9 1009.0 - - - - - - - - -
22/01:30am 28.4 NNW 6 8 1009.2 - - - - - - - - -
22/01:00am 28.4 NNW 6 8 1009.7 - - - - - - - - -
22/12:30am 28.5 NW 5 6 1010.4 - - - - - - - - -
22/12:00am 28.7 NW 7 9 1010.2 - - - - - - - - -
 
Date/Time
CST
Temp

°C
Wind Pressure Rain
since 9am
mm
Weather Cloud Vis
km
Sea
Height
m
Swell
Dir
 
Speed
knots
Gust
knots
hPa Trend Height
m
Period
s
Dir
21/11:30pm 28.8 NW 7 8 1010.5 - - - - - - - - -
21/11:00pm 29.0 NNW 7 9 1010.5 - - - - - - - - -
21/10:30pm 29.0 NNW 8 11 1010.3 - - - - - - - - -
21/10:00pm 29.1 N 8 11 1010.1 - - - - - - - - -
21/09:30pm 29.0 N 8 11 1009.7 - - - - - - - - -
21/09:00pm 29.3 N 9 13 1009.0 - - - - - - - - -
21/08:30pm 29.3 N 9 12 1008.9 - - - - - - - - -
21/08:00pm 29.3 N 9 11 1008.6 - - - - - - - - -
21/07:30pm 28.7 NE 4 6 1008.8 - - - - - - - - -
21/07:00pm 29.3 NE 4 6 1008.6 - - - - - - - - -
21/06:30pm 30.2 NNE 3 5 1008.5 - - - - - - - - -
21/06:00pm 31.0 N 4 6 1008.2 - - - - - - - - -
21/05:30pm 30.7 N 4 6 1008.2 - - - - - - - - -
21/05:00pm 31.6 N 4 5 1008.3 - - - - - - - - -
21/04:30pm 30.2 NNE 9 13 1008.4 - - - - - - - - -
21/04:00pm 32.5 W 6 8 1008.7 - - - - - - - - -
21/03:30pm 32.9 W 6 8 1008.7 - - - - - - - - -
21/03:00pm 32.6 W 6 9 1008.7 - - - - - - - - -
21/02:30pm 33.5 WSW 7 10 1008.7 - - - - - - - - -
21/02:00pm 33.0 W 6 9 1009.4 - - - - - - - - -
21/01:30pm 32.9 WSW 6 8 1009.8 - - - - - - - - -
21/01:00pm 33.1 WSW 6 10 1010.1 - - - - - - - - -
21/12:30pm 32.2 WSW 6 8 1010.3 - - - - - - - - -
21/12:00pm 32.8 W 6 8 1010.6 - - - - - - - - -
21/11:30am 32.3 WNW 5 7 1011.2 - - - - - - - - -
21/11:00am 32.4 NW 5 7 1011.6 - - - - - - - - -
21/10:30am 31.6 NW 4 6 1011.9 - - - - - - - - -
21/10:00am 31.0 W 5 6 1012.1 - - - - - - - - -
21/09:30am 32.2 N 5 6 1012.0 - - - - - - - - -
21/09:00am 31.9 NNE 4 6 1011.9 - - - - - - - - -
21/08:30am 31.0 ESE 3 5 1011.6 - - - - - - - - -
21/08:00am 29.8 SE 3 5 1011.6 - - - - - - - - -
21/07:30am 27.9 ESE 4 6 1011.3 - - - - - - - - -
21/07:00am 26.3 ESE 4 6 1010.8 - - - - - - - - -
21/06:30am 25.7 ESE 4 5 1010.6 - - - - - - - - -
21/06:00am 25.8 ESE 5 6 1010.1 - - - - - - - - -
21/05:30am 26.2 ESE 5 6 1009.8 - - - - - - - - -
21/05:00am 26.5 ESE 4 5 1009.5 - - - - - - - - -
21/04:30am 26.5 E 4 6 1009.5 - - - - - - - - -
21/04:00am 27.0 ESE 3 4 1009.2 - - - - - - - - -
21/03:30am 27.9 WNW 3 5 1008.9 - - - - - - - - -
21/03:00am 28.3 NNW 5 6 1008.8 - - - - - - - - -
21/02:30am 28.4 N 6 7 1009.0 - - - - - - - - -
21/02:00am 28.6 NNW 6 8 1009.1 - - - - - - - - -
21/01:30am 28.5 NNW 7 9 1009.3 - - - - - - - - -
21/01:00am 28.5 N 6 8 1009.4 - - - - - - - - -
21/12:30am 28.6 N 6 8 1009.8 - - - - - - - - -
21/12:00am 28.7 N 7 10 1009.8 - - - - - - - - -
 
Date/Time
CST
Temp

°C
Wind Pressure Rain
since 9am
mm
Weather Cloud Vis
km
Sea
Height
m
Swell
Dir
 
Speed
knots
Gust
knots
hPa Trend Height
m
Period
s
Dir
20/11:30pm 28.5 N 7 10 1010.0 - - - - - - - - -
20/11:00pm 28.7 N 6 8 1010.1 - - - - - - - - -
20/10:30pm 28.7 N 6 8 1010.1 - - - - - - - - -
20/10:00pm 28.7 N 6 8 1009.9 - - - - - - - - -
20/09:30pm 28.9 NNW 6 8 1009.8 - - - - - - - - -
20/09:00pm 29.0 NNW 7 9 1009.5 - - - - - - - - -
20/08:30pm 29.1 NNW 7 8 1009.4 - - - - - - - - -
20/08:00pm 29.2 NNW 6 8 1009.3 - - - - - - - - -
20/07:30pm 29.3 NNW 6 9 1009.1 - - - - - - - - -
20/07:00pm 29.4 NNW 7 9 1008.6 - - - - - - - - -
20/06:30pm 30.0 NW 7 9 1008.4 - - - - - - - - -
20/06:00pm 31.0 NW 7 9 1008.2 - - - - - - - - -
20/05:30pm 31.6 NW 7 8 1008.2 - - - - - - - - -
20/05:00pm 32.0 NW 6 7 1007.9 - - - - - - - - -
20/04:30pm 32.1 WNW 7 8 1008.0 - - - - - - - - -
20/04:00pm 32.3 W 7 9 1008.1 - - - - - - - - -
20/03:30pm 32.7 W 8 10 1008.2 - - - - - - - - -
20/03:00pm 32.2 W 9 11 1008.6 - - - - - - - - -
20/02:30pm 32.0 WNW 8 11 1009.0 - - - - - - - - -
20/02:00pm 31.6 W 8 10 1009.4 - - - - - - - - -
20/01:30pm 30.9 W 6 9 1010.3 - - - - - - - - -
20/01:00pm 31.5 W 6 8 1010.6 - - - - - - - - -
20/12:30pm 32.3 WNW 6 7 1010.9 - - - - - - - - -
20/12:00pm 32.6 N 6 8 1011.2 - - - - - - - - -
20/11:30am 31.4 N 8 11 1011.6 - - - - - - - - -
20/11:00am 32.8 N 8 11 1011.9 - - - - - - - - -
20/10:30am 32.4 N 7 10 1012.1 - - - - - - - - -
20/10:00am 31.8 N 4 6 1012.2 - - - - - - - - -
20/09:30am 31.6 N 4 7 1012.2 - - - - - - - - -
20/09:00am 31.0 NNE 5 7 1012.1 - - - - - - - - -
20/08:30am 30.7 NE 4 6 1011.9 - - - - - - - - -
20/08:00am 29.0 E 4 5 1011.5 - - - - - - - - -
20/07:30am 26.4 E 4 5 1010.9 - - - - - - - - -
20/07:00am 25.0 E 4 5 1010.7 - - - - - - - - -

Other Formats:

Comma delimited format used in spreadsheet applications
http://www.bom.gov.au/fwo/IDD60701/IDD60701.94122.axf

JavaScript Object Notation format (JSON) in row-major order
http://www.bom.gov.au/fwo/IDD60701/IDD60701.94122.json